Marylisa V — V7IM8 — position and weather

sailwx.info

Track history (hours):
 
Tides and Currents Weather Stations Pressure Air Temp Water Temp Dewpoint Dewpoint Depression Visibility Wind Speed Wind Dir Waves Ship Positions

Marylisa V

Last reported at 2018-May-11 22:14 UTC. Time now 2018-May-20 09:40 UTC.
Position N 07°59' W 014°40'.
Warning: this ship's position is 8 days out of date.

Length 190 m; draft 11.9 m.

Type: Ship. MMSI: 538002411.

Date/timePositionNaut miles runAvg speedWind from/ knotsBaromVisibWave heightAir tempDewpointWater temp
2018-May-11 22:14N 07°59' W 014°40'313.6
2018-May-11 22:00N 08°01' W 014°42'713.3
2018-May-11 21:30N 08°06' W 014°47'813.5
2018-May-11 20:55N 08°12' W 014°53'713.4
2018-May-11 20:26N 08°16' W 014°57'613.6
2018-May-11 20:00N 08°20' W 015°02'813.7
2018-May-11 19:23N 08°26' W 015°08'913.6
2018-May-11 18:46N 08°32' W 015°14'1113.4
2018-May-11 17:54N 08°40' W 015°22'713.3
2018-May-11 17:21N 08°45' W 015°28'413.1
2018-May-11 17:00N 08°48' W 015°31'713.1
2018-May-11 16:30N 08°52' W 015°36'713.0
2018-May-11 16:00N 08°57' W 015°41'713.0
2018-May-11 15:26N 09°02' W 015°46'613.0
2018-May-11 15:00N 09°06' W 015°50'713.0
2018-May-11 14:26N 09°11' W 015°56'613.3
2018-May-11 14:00N 09°15' W 015°60'713.2
2018-May-11 13:30N 09°20' W 016°04'713.3
2018-May-11 13:00N 09°24' W 016°09'713.2
2018-May-11 12:30N 09°29' W 016°14'713.2
2018-May-11 12:00N 09°33' W 016°19'713.5
2018-May-11 11:30N 09°38' W 016°24'813.6
2018-May-11 10:57N 09°43' W 016°30'613.2
2018-May-11 10:30N 09°47' W 016°34'8113.2
2018-May-11 04:20N 10°43' W 017°34'  
2018-May-05 16:22N 35°57' W 005°41'612.6
2018-May-05 15:54N 35°58' W 005°34'511.7
2018-May-05 15:31N 35°60' W 005°29'510.8
2018-May-05 15:00N 36°03' W 005°23'4 8.5
2018-May-05 14:30N 36°07' W 005°22'0 0.7
2018-May-05 13:56N 36°07' W 005°22'0 0.3
2018-May-05 13:29N 36°07' W 005°22'0 0.2
2018-May-05 12:59N 36°07' W 005°22'0 0.2
2018-May-05 12:08N 36°07' W 005°21'0 0.0
2018-May-05 11:47N 36°07' W 005°21'0 0.0
2018-May-05 11:29N 36°07' W 005°21'0 0.1
2018-May-05 10:47N 36°07' W 005°21'0 0.1
2018-May-05 10:29N 36°07' W 005°22'0 0.1
2018-May-05 09:59N 36°07' W 005°21'0 0.1
2018-May-05 09:17N 36°07' W 005°21'0 0.1
2018-May-05 08:56N 36°07' W 005°21'0 0.1
2018-May-05 08:29N 36°07' W 005°21'0 0.2
2018-May-05 07:59N 36°07' W 005°22'0 0.1
2018-May-05 07:29N 36°07' W 005°22'0 0.3
2018-May-05 07:00N 36°07' W 005°22'2 1.9
2018-May-05 05:56N 36°05' W 005°20'2 3.7
2018-May-05 05:30N 36°05' W 005°18'2 4.5
2018-May-05 05:00N 36°05' W 005°16'2 4.4
2018-May-05 04:30N 36°06' W 005°13'2 4.7
2018-May-05 04:00N 36°06' W 005°10'5 9.9
2018-May-05 03:30N 36°07' W 005°04'510.6
2018-May-05 03:00N 36°08' W 004°58'  
Track history (hours):
 
Tides and Currents Weather Stations Pressure Air Temp Water Temp Dewpoint Dewpoint Depression Visibility Wind Speed Wind Dir Waves Ship Positions

Marylisa V

Last reported at 2018-May-11 22:14 UTC. Time now 2018-May-20 09:40 UTC.
Position N 07°59' W 014°40'.
Warning: this ship's position is 8 days out of date.

Length 190 m; draft 11.9 m.

Type: Ship. MMSI: 538002411.

Date/timePositionNaut miles runAvg speedWind from/ knotsBaromVisibWave heightAir tempDewpointWater temp
2018-May-11 22:14N 07°59' W 014°40'313.6
2018-May-11 22:00N 08°01' W 014°42'713.3
2018-May-11 21:30N 08°06' W 014°47'813.5
2018-May-11 20:55N 08°12' W 014°53'713.4
2018-May-11 20:26N 08°16' W 014°57'613.6
2018-May-11 20:00N 08°20' W 015°02'813.7
2018-May-11 19:23N 08°26' W 015°08'913.6
2018-May-11 18:46N 08°32' W 015°14'1113.4
2018-May-11 17:54N 08°40' W 015°22'713.3
2018-May-11 17:21N 08°45' W 015°28'413.1
2018-May-11 17:00N 08°48' W 015°31'713.1
2018-May-11 16:30N 08°52' W 015°36'713.0
2018-May-11 16:00N 08°57' W 015°41'713.0
2018-May-11 15:26N 09°02' W 015°46'613.0
2018-May-11 15:00N 09°06' W 015°50'713.0
2018-May-11 14:26N 09°11' W 015°56'613.3
2018-May-11 14:00N 09°15' W 015°60'713.2
2018-May-11 13:30N 09°20' W 016°04'713.3
2018-May-11 13:00N 09°24' W 016°09'713.2
2018-May-11 12:30N 09°29' W 016°14'713.2
2018-May-11 12:00N 09°33' W 016°19'713.5
2018-May-11 11:30N 09°38' W 016°24'813.6
2018-May-11 10:57N 09°43' W 016°30'613.2
2018-May-11 10:30N 09°47' W 016°34'8113.2
2018-May-11 04:20N 10°43' W 017°34'  
2018-May-05 16:22N 35°57' W 005°41'612.6
2018-May-05 15:54N 35°58' W 005°34'511.7
2018-May-05 15:31N 35°60' W 005°29'510.8
2018-May-05 15:00N 36°03' W 005°23'4 8.5
2018-May-05 14:30N 36°07' W 005°22'0 0.7
2018-May-05 13:56N 36°07' W 005°22'0 0.3
2018-May-05 13:29N 36°07' W 005°22'0 0.2
2018-May-05 12:59N 36°07' W 005°22'0 0.2
2018-May-05 12:08N 36°07' W 005°21'0 0.0
2018-May-05 11:47N 36°07' W 005°21'0 0.0
2018-May-05 11:29N 36°07' W 005°21'0 0.1
2018-May-05 10:47N 36°07' W 005°21'0 0.1
2018-May-05 10:29N 36°07' W 005°22'0 0.1
2018-May-05 09:59N 36°07' W 005°21'0 0.1
2018-May-05 09:17N 36°07' W 005°21'0 0.1
2018-May-05 08:56N 36°07' W 005°21'0 0.1
2018-May-05 08:29N 36°07' W 005°21'0 0.2
2018-May-05 07:59N 36°07' W 005°22'0 0.1
2018-May-05 07:29N 36°07' W 005°22'0 0.3
2018-May-05 07:00N 36°07' W 005°22'2 1.9
2018-May-05 05:56N 36°05' W 005°20'2 3.7
2018-May-05 05:30N 36°05' W 005°18'2 4.5
2018-May-05 05:00N 36°05' W 005°16'2 4.4
2018-May-05 04:30N 36°06' W 005°13'2 4.7
2018-May-05 04:00N 36°06' W 005°10'5 9.9
2018-May-05 03:30N 36°07' W 005°04'510.6
2018-May-05 03:00N 36°08' W 004°58'  

Dump ship's entire track history